Time;durP1;ratioP1;P1;durP2;ratioP2;P2;SDS_P1;SDS_P2;PMS_P1;PMS_P2;Temp;Humidity;BMP_temperature;BMP_pressure;BME280_temperature;BME280_humidity;BME280_pressure;Samples;Min_cycle;Max_cycle;Signal;HPM_P1;HPM_P2
2022/11/22 00:01:38;;;;;;;7.25;5.68;;;;;;;3.64;100.00;99084.47;5222788;28;20035;-87
2022/11/22 00:04:09;;;;;;;5.80;4.53;;;;;;;4.13;100.00;99134.22;5223985;28;20017;-86
2022/11/22 00:06:39;;;;;;;10.80;5.72;;;;;;;3.69;100.00;99063.16;5240935;28;20490;-86
2022/11/22 00:09:09;;;;;;;9.73;4.63;;;;;;;4.20;100.00;99135.63;5223608;28;20039;-86
2022/11/22 00:11:40;;;;;;;7.57;4.40;;;;;;;4.28;100.00;99153.06;5240795;28;20021;-87
2022/11/22 00:14:10;;;;;;;10.52;5.72;;;;;;;3.78;100.00;99058.13;5223044;28;20017;-87
2022/11/22 00:16:41;;;;;;;9.90;6.38;;;;;;;4.13;100.00;99134.22;5241127;28;20027;-87
2022/11/22 00:19:11;;;;;;;9.43;5.10;;;;;;;3.96;100.00;99113.81;5222394;28;20106;-88
2022/11/22 00:21:41;;;;;;;7.28;5.65;;;;;;;3.98;100.00;99121.59;5240171;28;20036;-87
2022/11/22 00:24:12;;;;;;;8.82;4.88;;;;;;;3.66;100.00;99102.91;5223364;28;20017;-86
2022/11/22 00:26:43;;;;;;;14.55;6.05;;;;;;;4.05;100.00;99157.69;5222742;28;20017;-89
2022/11/22 00:29:13;;;;;;;17.27;7.35;;;;;;;4.19;100.00;99157.25;5239647;28;20025;-87
2022/11/22 00:31:43;;;;;;;11.60;5.65;;;;;;;3.48;100.00;99073.88;5221614;28;20025;-85
2022/11/22 00:34:14;;;;;;;6.00;4.95;;;;;;;3.64;100.00;99110.34;5222656;28;20402;-87
2022/11/22 00:36:44;;;;;;;5.28;4.95;;;;;;;3.72;100.00;99139.25;5240196;28;20040;-87
2022/11/22 00:39:15;;;;;;;9.27;4.32;;;;;;;3.47;100.00;99086.44;5222373;28;20514;-88
2022/11/22 00:41:45;;;;;;;20.08;5.53;;;;;;;3.97;100.00;99171.53;5222229;28;20036;-87
2022/11/22 00:44:15;;;;;;;19.63;6.60;;;;;;;3.64;100.00;99139.72;5222962;28;20029;-87
2022/11/22 00:46:46;;;;;;;5.38;4.82;;;;;;;3.53;100.00;99119.31;5222563;28;20048;-88
2022/11/22 00:49:16;;;;;;;16.77;7.35;;;;;;;3.27;100.00;99108.38;5240170;28;20025;-87
2022/11/22 00:51:47;;;;;;;14.00;6.80;;;;;;;3.79;100.00;99185.22;5239783;28;20035;-87
2022/11/22 00:54:17;;;;;;;11.70;4.32;;;;;;;3.35;100.00;99107.94;5222586;28;20024;-87
2022/11/22 00:56:47;;;;;;;6.18;5.63;;;;;;;3.60;100.00;99149.28;5222998;28;20029;-87
2022/11/22 00:59:18;;;;;;;8.45;6.15;;;;;;;3.80;100.00;99183.34;5222177;28;20047;-86
2022/11/22 01:01:48;;;;;;;10.35;5.40;;;;;;;3.67;100.00;99147.22;5240463;28;20040;-87
2022/11/22 01:04:19;;;;;;;7.18;5.32;;;;;;;3.45;100.00;99125.13;5253811;28;20043;-88
2022/11/22 01:06:49;;;;;;;10.15;5.20;;;;;;;3.32;100.00;99110.31;5261562;28;20032;-87
2022/11/22 01:09:21;;;;;;;6.53;4.95;;;;;;;3.77;100.00;99167.84;5244420;28;20060;-85
2022/11/22 01:11:52;;;;;;;12.10;6.63;;;;;;;3.38;100.00;99118.13;5261269;28;20028;-87
2022/11/22 01:14:22;;;;;;;9.90;7.22;;;;;;;3.29;100.00;99095.59;5260852;28;20024;-87
2022/11/22 01:16:53;;;;;;;17.65;6.82;;;;;;;3.30;100.00;99091.88;5243536;28;20036;-86
2022/11/22 01:19:23;;;;;;;15.77;6.10;;;;;;;3.36;100.00;99136.22;5243687;28;20025;-88
2022/11/22 01:21:53;;;;;;;20.48;7.38;;;;;;;3.56;100.00;99148.16;5242970;28;20031;-87
2022/11/22 01:24:24;;;;;;;10.77;6.63;;;;;;;3.81;100.00;99196.47;5243684;28;20029;-87
2022/11/22 01:26:54;;;;;;;12.15;6.15;;;;;;;3.80;100.00;99197.50;5242152;28;20113;-87
2022/11/22 01:29:25;;;;;;;24.02;7.13;;;;;;;3.15;100.00;99102.41;5242500;28;20113;-87
2022/11/22 01:31:55;;;;;;;12.30;6.18;;;;;;;3.08;100.00;99099.13;5260785;28;20033;-87
2022/11/22 01:34:26;;;;;;;9.98;5.95;;;;;;;3.22;100.00;99129.66;5243473;28;20025;-88
2022/11/22 01:36:56;;;;;;;20.92;6.25;;;;;;;3.19;100.00;99119.50;5259422;28;20025;-89
2022/11/22 01:39:26;;;;;;;11.38;6.50;;;;;;;3.41;100.00;99161.34;5260613;28;20021;-87
2022/11/22 01:41:57;;;;;;;13.10;6.72;;;;;;;3.63;100.00;99183.47;5260321;28;20024;-87
2022/11/22 01:44:30;;;;;;;17.65;6.47;;;;;;;3.67;100.00;99193.41;5261031;28;20033;-87
2022/11/22 01:47:26;;;;;;;10.52;4.90;;;;;;;3.59;100.00;99199.19;5242620;28;20085;-87
2022/11/22 01:50:03;;;;;;;14.15;6.93;;;;;;;3.05;100.00;99140.41;5256303;28;20559;-88
2022/11/22 01:52:34;;;;;;;5.93;4.78;;;;;;;3.46;100.00;99198.78;5243277;28;20060;-87
2022/11/22 01:55:10;;;;;;;22.33;6.35;;;;;;;3.36;100.00;99186.94;5242770;28;20031;-87
2022/11/22 01:57:42;;;;;;;15.07;5.55;;;;;;;3.15;100.00;99176.28;5260329;28;20047;-87
2022/11/22 02:00:15;;;;;;;22.67;7.18;;;;;;;3.52;100.00;99229.78;5260688;28;20039;-87
2022/11/22 02:02:50;;;;;;;19.48;5.82;;;;;;;3.36;100.00;99210.13;5242925;28;20104;-87
2022/11/22 02:05:24;;;;;;;13.68;7.47;;;;;;;3.30;100.00;99214.59;5260742;28;20024;-87
2022/11/22 02:08:19;;;;;;;10.88;6.43;;;;;;;2.86;100.00;99165.78;5260609;28;20123;-87
2022/11/22 02:10:53;;;;;;;13.68;5.90;;;;;;;2.68;100.00;99150.88;5242143;28;20028;-87
2022/11/22 02:13:24;;;;;;;5.88;5.43;;;;;;;3.27;100.00;99228.44;5242915;28;20055;-87
2022/11/22 02:15:55;;;;;;;9.70;5.15;;;;;;;2.86;100.00;99191.63;5259901;28;20028;-87
2022/11/22 02:18:25;;;;;;;7.28;4.50;;;;;;;3.29;100.00;99245.00;5261404;28;20051;-88
2022/11/22 02:20:57;;;;;;;8.60;5.95;;;;;;;3.27;100.00;99244.44;5243016;28;20020;-87
2022/11/22 02:23:41;;;;;;;8.85;6.18;;;;;;;3.24;100.00;99238.78;5242540;28;20044;-87
2022/11/22 02:26:13;;;;;;;7.18;5.28;;;;;;;3.23;100.00;99232.63;5245827;28;20029;-87
2022/11/22 02:28:44;;;;;;;12.38;6.05;;;;;;;2.74;100.00;99158.94;5244673;28;20036;-87
2022/11/22 02:31:36;;;;;;;8.35;5.03;;;;;;;3.26;100.00;99237.47;5225452;28;20029;-87
2022/11/22 02:34:08;;;;;;;6.65;4.80;;;;;;;2.77;100.00;99185.91;5226577;28;20031;-87
2022/11/22 02:36:51;;;;;;;18.85;6.28;;;;;;;3.18;100.00;99250.44;5229142;28;20013;-88
2022/11/22 02:39:29;;;;;;;5.07;4.55;;;;;;;3.16;100.00;99234.72;5230655;28;20033;-88
2022/11/22 02:42:00;;;;;;;14.80;5.47;;;;;;;2.79;100.00;99183.00;5248504;28;20020;-88
2022/11/22 02:44:31;;;;;;;12.80;5.97;;;;;;;2.72;100.00;99184.00;5248486;28;20110;-87
2022/11/22 02:47:01;;;;;;;12.75;5.50;;;;;;;2.80;100.00;99195.28;5229720;28;20029;-86
2022/11/22 02:49:32;;;;;;;12.43;5.32;;;;;;;2.72;100.00;99193.84;5229481;28;20040;-87
2022/11/22 02:52:02;;;;;;;9.70;5.35;;;;;;;2.48;100.00;99139.16;5230392;28;20031;-84
2022/11/22 02:54:33;;;;;;;17.40;6.75;;;;;;;2.80;100.00;99204.09;5229620;28;20029;-88
2022/11/22 02:57:03;;;;;;;9.13;6.50;;;;;;;3.04;100.00;99266.81;5247981;28;20028;-86
2022/11/22 02:59:33;;;;;;;7.90;5.63;;;;;;;2.58;100.00;99187.25;5233959;28;20080;-88
2022/11/22 03:02:04;;;;;;;11.57;5.00;;;;;;;2.92;100.00;99241.28;5251343;28;20084;-88
2022/11/22 03:04:34;;;;;;;11.23;5.85;;;;;;;2.49;100.00;99178.88;5251422;28;20036;-87
2022/11/22 03:07:05;;;;;;;13.73;6.72;;;;;;;2.57;100.00;99202.44;5247981;28;20040;-89
2022/11/22 03:09:35;;;;;;;18.35;5.60;;;;;;;2.61;100.00;99208.88;5231304;28;20047;-88
2022/11/22 03:12:06;;;;;;;5.95;4.78;;;;;;;2.18;100.00;99155.47;5230543;28;20090;-85
2022/11/22 03:14:36;;;;;;;8.77;4.95;;;;;;;2.55;100.00;99204.53;5248101;28;20021;-87
2022/11/22 03:17:06;;;;;;;17.63;6.93;;;;;;;2.16;100.00;99153.06;5230935;28;20028;-87
2022/11/22 03:19:37;;;;;;;10.93;5.45;;;;;;;2.76;100.00;99252.81;5247872;28;20029;-86
2022/11/22 03:22:07;;;;;;;8.93;5.20;;;;;;;2.17;100.00;99165.31;5230242;28;20028;-87
2022/11/22 03:24:38;;;;;;;5.88;4.70;;;;;;;2.34;100.00;99208.72;5230914;28;20020;-87
2022/11/22 03:27:08;;;;;;;8.85;5.07;;;;;;;2.15;100.00;99182.59;5249538;28;20033;-87
2022/11/22 03:29:39;;;;;;;7.57;4.57;;;;;;;2.55;100.00;99236.50;5231599;28;20031;-86
2022/11/22 03:32:09;;;;;;;4.63;3.83;;;;;;;2.12;100.00;99178.56;5248386;28;20036;-87
2022/11/22 03:34:39;;;;;;;6.65;5.22;;;;;;;2.69;100.00;99259.09;5247973;28;20005;-86
2022/11/22 03:37:10;;;;;;;12.55;6.70;;;;;;;2.44;100.00;99216.09;5230039;28;20141;-88
2022/11/22 03:39:40;;;;;;;7.93;3.28;;;;;;;2.04;100.00;99171.78;5230722;28;20031;-86
2022/11/22 03:42:11;;;;;;;6.18;4.88;;;;;;;2.43;100.00;99253.63;5247048;28;20079;-88
2022/11/22 03:44:41;;;;;;;6.25;3.80;;;;;;;2.24;100.00;99210.44;5230404;28;20040;-87
2022/11/22 03:47:12;;;;;;;10.10;4.75;;;;;;;2.64;100.00;99282.19;5247475;28;20052;-87
2022/11/22 03:49:42;;;;;;;4.75;4.05;;;;;;;2.27;100.00;99252.56;5247234;28;20032;-86
2022/11/22 03:52:12;;;;;;;11.93;4.97;;;;;;;2.41;100.00;99269.03;5246996;28;20024;-87
2022/11/22 03:54:43;;;;;;;4.03;3.75;;;;;;;2.48;100.00;99294.47;5230625;28;20031;-86
2022/11/22 03:57:15;;;;;;;5.68;5.05;;;;;;;1.85;100.00;99196.19;5230009;28;20032;-87
2022/11/22 03:59:46;;;;;;;9.27;5.82;;;;;;;2.17;100.00;99239.09;5230847;28;20088;-88
2022/11/22 04:02:16;;;;;;;15.07;4.43;;;;;;;2.37;100.00;99282.03;5229147;28;20033;-87
2022/11/22 04:04:46;;;;;;;6.03;4.53;;;;;;;2.46;100.00;99285.09;5245868;28;20025;-86
2022/11/22 04:07:17;;;;;;;12.90;4.25;;;;;;;2.53;100.00;99299.91;5247010;28;20080;-86
2022/11/22 04:09:47;;;;;;;4.38;4.05;;;;;;;2.41;100.00;99277.03;5244591;28;20035;-86
2022/11/22 04:12:18;;;;;;;9.60;4.97;;;;;;;2.07;100.00;99236.22;5227322;28;20371;-86
2022/11/22 04:15:07;;;;;;;12.25;5.93;;;;;;;2.06;100.00;99223.97;5227206;28;20053;-87
2022/11/22 04:17:44;;;;;;;12.88;5.03;;;;;;;1.97;100.00;99216.41;5245410;28;20070;-87
2022/11/22 04:23:17;;;;;;;8.32;3.88;;;;;;;2.48;100.00;99305.13;5250163;28;20055;-88
2022/11/22 04:25:49;;;;;;;10.07;4.15;;;;;;;1.89;100.00;99222.09;5233500;28;20029;-87
2022/11/22 04:28:23;;;;;;;6.47;3.60;;;;;;;2.04;100.00;99262.28;5229516;28;20025;-87
2022/11/22 04:33:43;;;;;;;15.50;4.63;;;;;;;1.80;100.00;99226.19;5244964;28;20051;-87
2022/11/22 04:36:13;;;;;;;14.40;4.93;;;;;;;2.35;100.00;99302.78;5228236;28;20021;-87
2022/11/22 04:38:43;;;;;;;6.45;4.22;;;;;;;2.08;100.00;99238.66;5225478;28;20075;-87
2022/11/22 04:41:14;;;;;;;7.20;4.72;;;;;;;2.25;100.00;99263.47;5227079;28;20051;-87
2022/11/22 04:46:33;;;;;;;17.92;5.78;;;;;;;2.23;100.00;99252.25;5244435;28;20029;-86
2022/11/22 04:49:03;;;;;;;7.25;4.65;;;;;;;1.87;100.00;99189.59;5224460;28;20021;-87
2022/11/22 04:54:23;;;;;;;8.38;4.80;;;;;;;2.33;100.00;99270.22;5241099;28;20037;-87
2022/11/22 04:56:53;;;;;;;8.45;5.28;;;;;;;1.72;100.00;99185.88;5223808;28;20017;-88
2022/11/22 04:59:24;;;;;;;13.48;5.05;;;;;;;1.78;100.00;99199.00;5245650;28;20013;-87
2022/11/22 05:01:54;;;;;;;7.88;3.88;;;;;;;2.01;100.00;99246.81;5227484;28;20092;-85
2022/11/22 05:04:24;;;;;;;10.05;4.55;;;;;;;2.33;100.00;99283.56;5241173;28;20032;-86
2022/11/22 05:06:58;;;;;;;20.30;4.43;;;;;;;2.11;100.00;99238.19;5222573;28;20362;-86
2022/11/22 05:09:28;;;;;;;6.50;3.95;;;;;;;1.91;100.00;99189.94;5223044;28;20033;-87
2022/11/22 05:11:58;;;;;;;7.30;3.72;;;;;;;2.03;100.00;99222.59;5223071;28;20042;-86
2022/11/22 05:14:29;;;;;;;4.65;4.35;;;;;;;2.49;100.00;99297.94;5239764;28;20088;-85
2022/11/22 05:16:59;;;;;;;12.40;4.47;;;;;;;1.93;100.00;99217.91;5222787;28;20045;-86
2022/11/22 05:19:30;;;;;;;10.35;5.03;;;;;;;1.66;100.00;99191.09;5240717;28;20025;-87
2022/11/22 05:22:00;;;;;;;7.15;3.97;;;;;;;2.22;100.00;99276.44;5223012;28;20048;-87
2022/11/22 05:24:30;;;;;;;4.78;4.38;;;;;;;1.91;100.00;99216.53;5222725;28;20025;-87
2022/11/22 05:27:01;;;;;;;5.47;4.97;;;;;;;2.08;100.00;99237.84;5222155;28;20033;-86
2022/11/22 05:29:31;;;;;;;9.68;4.15;;;;;;;1.92;100.00;99224.28;5239618;28;20028;-86
2022/11/22 05:32:03;;;;;;;6.03;3.92;;;;;;;2.40;100.00;99273.56;5221786;28;20036;-87
2022/11/22 05:34:33;;;;;;;11.85;4.40;;;;;;;2.33;100.00;99259.56;5222121;28;20032;-86
2022/11/22 05:37:03;;;;;;;7.72;5.47;;;;;;;2.11;100.00;99216.06;5240088;28;20017;-86
2022/11/22 05:39:34;;;;;;;6.70;4.47;;;;;;;2.42;100.00;99270.66;5240599;28;20040;-88
2022/11/22 05:42:04;;;;;;;8.98;4.43;;;;;;;1.97;100.00;99221.72;5222728;28;20051;-86
2022/11/22 05:44:35;;;;;;;12.80;5.75;;;;;;;2.44;100.00;99292.53;5240095;28;20028;-86
2022/11/22 05:47:05;;;;;;;8.43;4.05;;;;;;;2.12;100.00;99249.63;5221836;28;20020;-85
2022/11/22 05:49:36;;;;;;;10.48;4.13;;;;;;;1.78;100.00;99199.00;5239920;28;20028;-85
2022/11/22 05:52:09;;;;;;;7.80;5.30;;;;;;;1.60;100.00;99212.53;5242625;28;20025;-86
2022/11/22 05:54:40;;;;;;;6.22;4.53;;;;;;;1.88;100.00;99263.06;5241012;28;20056;-86
2022/11/22 05:57:10;;;;;;;7.63;5.18;;;;;;;1.80;100.00;99223.53;5251791;28;20107;-84
2022/11/22 05:59:41;;;;;;;5.75;5.32;;;;;;;2.11;100.00;99272.00;5257367;28;20079;-85
2022/11/22 06:02:11;;;;;;;8.32;6.47;;;;;;;1.52;100.00;99186.28;5228638;28;20021;-86
2022/11/22 06:04:41;;;;;;;10.63;5.10;;;;;;;2.04;100.00;99256.16;5254192;28;20248;-84
2022/11/22 06:07:12;;;;;;;6.15;4.13;;;;;;;1.85;100.00;99215.63;5265363;28;20496;-86
2022/11/22 06:09:42;;;;;;;6.63;5.35;;;;;;;2.55;100.00;99292.47;5248650;28;20493;-84
2022/11/22 06:12:13;;;;;;;7.90;4.45;;;;;;;2.34;100.00;99259.34;5256904;28;20023;-84
2022/11/22 06:14:44;;;;;;;8.93;6.72;;;;;;;2.44;100.00;99245.38;5267076;28;20024;-85
2022/11/22 06:17:15;;;;;;;4.63;4.22;;;;;;;2.24;100.00;99186.47;5238650;28;20120;-84
2022/11/22 06:19:46;;;;;;;12.25;4.60;;;;;;;2.84;100.00;99279.06;5247101;28;20021;-85
2022/11/22 06:22:16;;;;;;;11.85;5.07;;;;;;;2.94;100.00;99301.31;5260702;28;20017;-85
2022/11/22 06:24:47;;;;;;;11.50;5.30;;;;;;;2.91;100.00;99293.81;5227526;28;20072;-85
2022/11/22 06:27:17;;;;;;;12.13;5.28;;;;;;;2.89;100.00;99284.44;5245474;28;20025;-86
2022/11/22 06:29:48;;;;;;;13.02;6.10;;;;;;;3.08;100.00;99315.13;5245091;28;20023;-86
2022/11/22 06:32:18;;;;;;;9.93;5.15;;;;;;;3.09;100.00;99311.41;5225046;28;20764;-86
2022/11/22 06:34:49;;;;;;;9.52;6.35;;;;;;;2.52;100.00;99214.88;5242504;28;20021;-86
2022/11/22 06:37:19;;;;;;;14.13;6.18;;;;;;;2.62;100.00;99246.97;5260416;28;20013;-85
2022/11/22 06:39:49;;;;;;;8.43;5.13;;;;;;;2.94;100.00;99277.31;5243976;28;20025;-86
2022/11/22 06:42:20;;;;;;;8.13;5.43;;;;;;;2.65;100.00;99246.50;5242535;28;20051;-86
2022/11/22 06:44:50;;;;;;;6.20;4.50;;;;;;;2.88;100.00;99254.31;5263134;28;20040;-85
2022/11/22 06:47:20;;;;;;;8.30;6.00;;;;;;;3.20;100.00;99318.50;5262549;28;20044;-85
2022/11/22 06:49:51;;;;;;;5.32;4.85;;;;;;;3.23;100.00;99306.53;5242699;28;20029;-87
2022/11/22 06:52:21;;;;;;;10.85;6.18;;;;;;;3.42;100.00;99331.06;5243069;28;20029;-87
2022/11/22 06:54:52;;;;;;;5.60;5.05;;;;;;;3.45;100.00;99330.59;5243054;28;20035;-87
2022/11/22 06:57:22;;;;;;;6.78;5.25;;;;;;;3.09;100.00;99279.41;5260713;28;20035;-87
2022/11/22 06:59:53;;;;;;;9.55;4.40;;;;;;;3.07;100.00;99264.72;5260546;28;20052;-86
2022/11/22 07:02:23;;;;;;;5.10;4.10;;;;;;;3.39;100.00;99313.69;5260817;28;20024;-86
2022/11/22 07:04:53;;;;;;;9.90;3.88;;;;;;;3.40;100.00;99315.31;5242531;28;20024;-87
2022/11/22 07:07:24;;;;;;;9.43;5.45;;;;;;;2.88;100.00;99218.88;5260856;28;20367;-86
2022/11/22 07:09:54;;;;;;;7.20;4.07;;;;;;;3.25;100.00;99275.88;5259673;28;20494;-87
2022/11/22 07:12:25;;;;;;;7.80;5.63;;;;;;;3.49;100.00;99305.00;5259934;28;20043;-87
2022/11/22 07:14:55;;;;;;;8.18;5.38;;;;;;;3.09;100.00;99223.41;5242529;28;20021;-87
2022/11/22 07:17:25;;;;;;;15.20;5.60;;;;;;;3.54;100.00;99299.72;5242531;28;20088;-87
2022/11/22 07:19:57;;;;;;;6.63;4.70;;;;;;;3.33;100.00;99277.31;5242764;28;20053;-85
2022/11/22 07:22:28;;;;;;;11.00;4.95;;;;;;;3.75;100.00;99314.97;5254957;28;20043;-86
2022/11/22 07:24:58;;;;;;;4.22;3.90;;;;;;;3.78;100.00;99321.63;5239817;28;20047;-86
2022/11/22 07:27:29;;;;;;;4.63;3.95;;;;;;;3.79;100.00;99324.06;5240171;28;20025;-87
2022/11/22 07:29:59;;;;;;;5.97;4.13;;;;;;;3.29;100.00;99250.31;5240259;28;20035;-86
2022/11/22 07:32:30;;;;;;;10.68;3.83;;;;;;;3.60;100.00;99280.06;5222332;28;20083;-87
2022/11/22 07:35:00;;;;;;;5.95;4.75;;;;;;;3.33;100.00;99247.97;5239739;28;20017;-87
2022/11/22 07:37:31;;;;;;;6.68;5.07;;;;;;;3.77;100.00;99309.34;5239516;28;20078;-87
2022/11/22 07:40:01;;;;;;;8.23;4.82;;;;;;;3.96;100.00;99316.00;5221233;28;20525;-87
2022/11/22 07:42:32;;;;;;;7.80;4.03;;;;;;;3.87;100.00;99296.13;5239306;28;20032;-86
2022/11/22 07:45:02;;;;;;;7.80;5.93;;;;;;;3.36;100.00;99210.94;5238719;28;20060;-86
2022/11/22 07:47:33;;;;;;;11.43;4.40;;;;;;;3.84;100.00;99283.25;5238781;28;20526;-86
2022/11/22 07:50:04;;;;;;;5.70;4.55;;;;;;;3.96;100.00;99291.94;5221304;28;20033;-86
2022/11/22 07:52:34;;;;;;;5.13;4.72;;;;;;;4.14;100.00;99320.16;5239581;28;20458;-87
2022/11/22 07:55:05;;;;;;;4.57;4.28;;;;;;;4.18;100.00;99315.94;5220987;28;20048;-87
2022/11/22 07:57:36;;;;;;;9.52;4.80;;;;;;;3.75;100.00;99264.22;5221421;28;20289;-87
2022/11/22 08:00:07;;;;;;;8.80;5.22;;;;;;;4.27;100.00;99319.78;5221145;28;20387;-88
2022/11/22 08:02:38;;;;;;;5.30;4.03;;;;;;;4.08;100.00;99306.75;5221311;28;20028;-87
2022/11/22 08:05:08;;;;;;;5.60;3.85;;;;;;;3.75;100.00;99250.06;5221228;28;20056;-87
2022/11/22 08:07:44;;;;;;;5.20;4.90;;;;;;;3.83;100.00;99249.59;5221442;28;20487;-86
2022/11/22 08:10:14;;;;;;;4.50;4.10;;;;;;;4.07;100.00;99278.44;5238567;28;20025;-87
2022/11/22 08:12:45;;;;;;;15.27;5.30;;;;;;;3.83;100.00;99262.97;5220968;28;20024;-87
2022/11/22 08:15:16;;;;;;;4.32;3.70;;;;;;;4.46;100.00;99330.91;5239073;28;20025;-87
2022/11/22 08:17:46;;;;;;;6.70;4.22;;;;;;;4.06;100.00;99273.34;5220923;28;20030;-87
2022/11/22 08:20:17;;;;;;;4.50;4.28;;;;;;;3.89;100.00;99225.38;5222522;28;20029;-87
2022/11/22 08:22:47;;;;;;;4.45;4.05;;;;;;;4.37;100.00;99301.16;5220716;28;20017;-89
2022/11/22 08:25:18;;;;;;;5.22;4.20;;;;;;;3.67;100.00;99181.91;5222036;28;20029;-86
2022/11/22 08:27:48;;;;;;;3.97;3.78;;;;;;;4.06;100.00;99258.13;5239844;28;20078;-88
2022/11/22 08:30:18;;;;;;;7.28;3.22;;;;;;;4.12;100.00;99260.84;5221863;28;20040;-86
2022/11/22 08:32:50;;;;;;;17.17;4.60;;;;;;;3.96;100.00;99241.22;5222464;28;20020;-87
2022/11/22 08:35:21;;;;;;;6.15;4.53;;;;;;;4.23;100.00;99259.91;5221872;28;20025;-88
2022/11/22 08:37:57;;;;;;;7.72;3.78;;;;;;;3.72;100.00;99163.28;5240022;28;20024;-87
2022/11/22 08:40:27;;;;;;;10.13;3.83;;;;;;;4.56;100.00;99290.91;5223069;28;20032;-88
2022/11/22 08:42:57;;;;;;;9.85;3.97;;;;;;;4.57;100.00;99289.84;5224198;28;20694;-87
2022/11/22 08:45:28;;;;;;;6.80;4.63;;;;;;;4.49;100.00;99274.28;5237428;23;20140;-66
2022/11/22 08:47:58;;;;;;;10.18;5.35;;;;;;;4.73;100.00;99316.44;5221689;28;20048;-66
2022/11/22 08:50:29;;;;;;;7.90;4.63;;;;;;;4.75;100.00;99298.28;5228319;28;20056;-66
2022/11/22 08:53:00;;;;;;;8.45;4.15;;;;;;;4.84;100.00;99305.84;5228715;28;20043;-66
2022/11/22 08:55:31;;;;;;;12.13;4.63;;;;;;;4.89;100.00;99312.03;5228615;28;20032;-66
2022/11/22 08:58:01;;;;;;;7.85;4.07;;;;;;;4.91;100.00;99298.41;5246597;28;20023;-66
2022/11/22 09:00:31;;;;;;;8.13;5.22;;;;;;;4.99;100.00;99321.97;5228350;28;20029;-66
2022/11/22 09:03:02;;;;;;;5.85;4.70;;;;;;;5.05;100.00;99323.63;5228376;28;20024;-65
2022/11/22 09:06:05;;;;;;;5.18;4.70;;;;;;;5.07;100.00;99321.50;5228498;28;20460;-65
2022/11/22 09:08:36;;;;;;;7.53;4.32;;;;;;;5.08;100.00;99317.78;5228614;28;20025;-66
2022/11/22 09:20:08;;;;;;;4.28;3.97;;;;;;;5.12;100.00;99297.47;5241169;28;20052;-66
2022/11/22 09:22:38;;;;;;;4.00;3.70;;;;;;;5.23;100.00;99303.66;5207931;28;20389;-66
2022/11/22 09:25:09;;;;;;;4.30;4.00;;;;;;;5.23;100.00;99312.50;5208011;28;20047;-66
2022/11/22 09:27:39;;;;;;;6.57;4.18;;;;;;;5.23;100.00;99311.69;5225866;28;20020;-66
2022/11/22 09:30:10;;;;;;;8.43;4.35;;;;;;;5.21;100.00;99305.78;5207804;28;20029;-66
2022/11/22 09:32:43;;;;;;;4.63;3.92;;;;;;;5.09;100.00;99281.94;5207807;28;20624;-66
2022/11/22 09:35:16;;;;;;;4.85;4.63;;;;;;;5.10;100.00;99283.53;5207578;28;20013;-66
2022/11/22 09:37:46;;;;;;;6.10;4.15;;;;;;;5.28;100.00;99303.69;5207766;28;20553;-66
2022/11/22 09:40:17;;;;;;;7.18;4.93;;;;;;;5.36;100.00;99298.66;5207683;28;20108;-66
2022/11/22 09:43:28;;;;;;;7.25;5.13;;;;;;;5.52;100.00;99312.13;5207818;28;20032;-66
2022/11/22 09:46:37;;;;;;;5.47;4.40;;;;;;;5.56;100.00;99303.31;5189461;28;20170;-66
2022/11/22 09:49:10;;;;;;;4.78;4.38;;;;;;;5.63;100.00;99309.25;5207731;28;20175;-66
2022/11/22 09:51:50;;;;;;;5.30;4.65;;;;;;;5.62;100.00;99306.81;5207400;28;20116;-66
2022/11/22 09:54:29;;;;;;;6.80;3.67;;;;;;;5.58;100.00;99305.72;5207983;28;20037;-66
2022/11/22 09:57:05;;;;;;;5.32;4.90;;;;;;;5.53;100.00;99311.06;5207712;28;20020;-66
2022/11/22 09:59:39;;;;;;;3.83;3.63;;;;;;;5.49;100.00;99294.69;5207526;28;20025;-66
2022/11/22 10:02:19;;;;;;;4.00;3.80;;;;;;;5.57;100.00;99309.47;5225220;28;20426;-66
2022/11/22 10:04:59;;;;;;;3.95;3.72;;;;;;;5.53;100.00;99300.34;5207447;28;20119;-66
2022/11/22 10:07:47;;;;;;;4.55;4.15;;;;;;;5.66;100.00;99313.28;5207460;28;20170;-66
2022/11/22 10:13:55;;;;;;;7.85;5.22;;;;;;;5.65;100.00;99307.09;5225205;28;20048;-66
2022/11/22 10:16:34;;;;;;;8.35;3.63;;;;;;;5.65;100.00;99304.44;5207398;28;20361;-66
2022/11/22 10:19:13;;;;;;;6.15;5.38;;;;;;;5.65;100.00;99307.09;5207589;28;20044;-66
2022/11/22 10:21:46;;;;;;;4.70;4.10;;;;;;;5.66;100.00;99314.06;5207125;28;20025;-66
2022/11/22 10:24:18;;;;;;;5.93;3.90;;;;;;;5.66;100.00;99308.72;5207365;28;20032;-66
2022/11/22 10:26:48;;;;;;;10.30;4.03;;;;;;;5.69;100.00;99310.06;5207230;28;20143;-66
2022/11/22 10:29:46;;;;;;;3.90;3.70;;;;;;;5.46;100.00;99270.34;5207099;28;20036;-66
2022/11/22 10:32:36;;;;;;;4.68;3.45;;;;;;;5.71;100.00;99297.22;5207253;28;20489;-66
2022/11/22 10:35:12;;;;;;;5.30;4.68;;;;;;;5.71;100.00;99292.69;5207499;28;20477;-66
2022/11/22 10:38:10;;;;;;;3.40;3.20;;;;;;;5.72;100.00;99302.31;5225131;28;20017;-66
2022/11/22 10:41:03;;;;;;;3.40;3.25;;;;;;;5.71;100.00;99283.84;5206962;28;20032;-66
2022/11/22 10:44:19;;;;;;;3.58;3.25;;;;;;;5.73;100.00;99285.19;5207165;28;20078;-66
2022/11/22 10:47:12;;;;;;;6.65;3.90;;;;;;;5.69;100.00;99253.84;5204697;28;20061;-66
2022/11/22 10:50:15;;;;;;;3.90;3.55;;;;;;;5.83;100.00;99276.34;5210868;28;20405;-66
2022/11/22 10:52:54;;;;;;;4.57;3.72;;;;;;;5.83;100.00;99276.34;5229029;28;20028;-66
2022/11/22 10:55:46;;;;;;;5.35;4.05;;;;;;;5.88;100.00;99272.91;5210733;28;20017;-66
2022/11/22 10:58:23;;;;;;;3.42;3.33;;;;;;;5.95;100.00;99274.28;5210659;28;20465;-66
2022/11/22 11:01:25;;;;;;;3.63;3.45;;;;;;;5.99;100.00;99274.56;5210188;28;20481;-66
2022/11/22 11:04:02;;;;;;;4.85;2.80;;;;;;;6.05;100.00;99271.66;5209717;28;20044;-66
2022/11/22 11:06:41;;;;;;;5.18;2.80;;;;;;;5.95;100.00;99247.50;5210436;28;20048;-66
2022/11/22 11:09:19;;;;;;;3.45;3.15;;;;;;;6.19;100.00;99277.28;5210471;28;20115;-66
2022/11/22 11:11:51;;;;;;;7.00;3.55;;;;;;;6.23;100.00;99264.16;5210157;28;20048;-66
2022/11/22 11:14:40;;;;;;;3.47;3.00;;;;;;;6.20;100.00;99270.03;5228339;28;20025;-66
2022/11/22 11:17:16;;;;;;;3.92;3.67;;;;;;;6.17;100.00;99270.56;5210334;28;20185;-66
2022/11/22 11:19:50;;;;;;;6.75;4.32;;;;;;;6.14;100.00;99268.41;5209910;28;20041;-67
2022/11/22 11:22:23;;;;;;;5.47;2.53;;;;;;;6.00;100.00;99255.56;5209882;28;20032;-67
2022/11/22 11:27:50;;;;;;;6.38;3.28;;;;;;;4.41;100.00;98997.59;5286893;22;20049;-94
2022/11/22 11:30:37;;;;;;;4.33;3.60;;;;;;;5.51;100.00;99160.56;5218136;28;20045;-93
2022/11/22 11:34:00;;;;;;;3.50;3.30;;;;;;;4.39;100.00;98967.66;5218687;28;20032;-92
2022/11/22 11:36:41;;;;;;;3.67;3.38;;;;;;;4.43;100.00;98950.03;5195435;28;20033;-93
2022/11/22 11:39:37;;;;;;;4.45;4.07;;;;;;;5.90;100.00;99137.66;5197038;28;20026;-92
2022/11/22 11:42:33;;;;;;;3.05;2.95;;;;;;;4.80;100.00;98965.13;5199188;28;20068;-94
2022/11/22 11:45:35;;;;;;;3.92;2.97;;;;;;;6.75;100.00;99253.16;5205720;28;20001;-93
2022/11/22 11:48:36;;;;;;;2.50;2.40;;;;;;;6.26;100.00;99188.56;5205912;28;20029;-93
2022/11/22 11:55:30;;;;;;;;;;;;;;;;;;;;;
2022/11/22 12:01:21;;;;;;;3.08;2.97;;;;;;;4.49;100.00;98919.59;5140882;28;20053;-93
2022/11/22 12:04:14;;;;;;;;;;;;;;;;;;;;;
2022/11/22 12:07:18;;;;;;;2.67;2.47;;;;;;;5.96;100.00;99133.09;5147585;28;20031;-92
2022/11/22 12:10:12;;;;;;;2.50;2.40;;;;;;;5.33;100.00;99009.31;5196493;28;20048;-93
2022/11/22 12:16:50;;;;;;;2.67;2.58;;;;;;;4.82;100.00;98966.47;5172753;28;20033;-93
2022/11/22 12:19:50;;;;;;;2.63;2.53;;;;;;;6.76;100.00;99247.53;5186294;28;20034;-92
2022/11/22 12:22:42;;;;;;;;;;;;;;;6.87;100.00;99236.78;5195215;28;20029;-92
2022/11/22 12:25:33;;;;;;;2.67;2.58;;;;;;;6.50;100.00;99189.63;5210895;28;19909;-92
2022/11/22 12:28:43;;;;;;;2.67;2.58;;;;;;;4.96;100.00;98934.63;5195549;28;20038;-92
2022/11/22 12:31:35;;;;;;;4.90;4.50;;;;;;;6.50;100.00;99176.22;5204761;28;20029;-92
2022/11/22 12:35:00;;;;;;;2.17;2.17;;;;;;;6.94;100.00;99231.91;5194242;28;20036;-93
2022/11/22 12:38:04;;;;;;;2.50;2.50;;;;;;;4.83;100.00;98929.81;5180369;28;20063;-93
2022/11/22 12:41:23;;;;;;;3.55;3.35;;;;;;;4.65;100.00;98926.56;5193546;28;20025;-93
2022/11/22 12:44:06;;;;;;;12.57;3.25;;;;;;;6.52;100.00;99216.97;5193983;28;20032;-92
2022/11/22 12:47:03;;;;;;;2.58;2.47;;;;;;;4.93;100.00;98977.97;5190963;28;20029;-91
2022/11/22 12:49:55;;;;;;;2.47;2.38;;;;;;;5.86;100.00;99099.03;5177592;28;20123;-92